Time;durP1;ratioP1;P1;durP2;ratioP2;P2;SDS_P1;SDS_P2;PMS_P1;PMS_P2;Temp;Humidity;BMP_temperature;BMP_pressure;BME280_temperature;BME280_humidity;BME280_pressure;Samples;Min_cycle;Max_cycle;Signal;HPM_P1;HPM_P2
2024/01/28 00:02:20;;;;;;;91.32;58.58;;;;;;;;;;6260207;28;24423;-78
2024/01/28 00:05:21;;;;;;;92.95;58.83;;;;;;;;;;6262630;28;24848;-79
2024/01/28 00:08:25;;;;;;;94.82;59.00;;;;;;;;;;6264635;28;24419;-79
2024/01/28 00:11:27;;;;;;;94.40;58.90;;;;;;;;;;6262658;28;24430;-79
2024/01/28 00:14:31;;;;;;;95.90;60.30;;;;;;;;;;6263092;28;24423;-79
2024/01/28 00:17:33;;;;;;;92.93;59.40;;;;;;;;;;6264412;28;24439;-79
2024/01/28 00:20:35;;;;;;;91.05;57.05;;;;;;;;;;6260283;28;24469;-79
2024/01/28 00:23:36;;;;;;;92.95;58.70;;;;;;;;;;6261323;28;24538;-78
2024/01/28 00:26:38;;;;;;;91.50;57.58;;;;;;;;;;6260776;28;24477;-79
2024/01/28 00:29:44;;;;;;;91.13;58.30;;;;;;;;;;6263141;28;24468;-78
2024/01/28 00:32:46;;;;;;;96.97;59.83;;;;;;;;;;6265954;28;24446;-79
2024/01/28 00:35:48;;;;;;;95.47;60.33;;;;;;;;;;6269511;28;24419;-79
2024/01/28 00:38:49;;;;;;;101.15;61.35;;;;;;;;;;6266554;28;24506;-79
2024/01/28 00:41:51;;;;;;;98.03;60.50;;;;;;;;;;6298992;28;24462;-79
2024/01/28 00:44:54;;;;;;;96.40;60.25;;;;;;;;;;6271282;28;24473;-78
2024/01/28 00:47:55;;;;;;;100.80;61.13;;;;;;;;;;6268305;28;24969;-78
2024/01/28 00:50:57;;;;;;;94.07;59.17;;;;;;;;;;6269567;28;24503;-78
2024/01/28 00:54:00;;;;;;;82.53;54.45;;;;;;;;;;6269910;28;24465;-79
2024/01/28 00:57:02;;;;;;;78.88;51.85;;;;;;;;;;6265827;28;24558;-78
2024/01/28 01:00:06;;;;;;;77.78;50.50;;;;;;;;;;6267478;28;24654;-79
2024/01/28 01:03:09;;;;;;;78.35;50.45;;;;;;;;;;6268698;28;24416;-78
2024/01/28 01:06:11;;;;;;;74.00;49.10;;;;;;;;;;6268294;28;24556;-75
2024/01/28 01:09:12;;;;;;;73.35;48.53;;;;;;;;;;6270840;28;24423;-75
2024/01/28 01:12:17;;;;;;;74.37;49.03;;;;;;;;;;6270239;28;24885;-76
2024/01/28 01:15:21;;;;;;;73.43;49.72;;;;;;;;;;6268986;28;24440;-75
2024/01/28 01:18:23;;;;;;;74.45;48.95;;;;;;;;;;6267175;28;24442;-75
2024/01/28 01:21:25;;;;;;;72.03;48.08;;;;;;;;;;6268040;28;24662;-75
2024/01/28 01:24:26;;;;;;;71.30;47.65;;;;;;;;;;6270355;28;24497;-75
2024/01/28 01:27:28;;;;;;;69.30;47.20;;;;;;;;;;6265199;28;24430;-75
2024/01/28 01:30:31;;;;;;;68.35;46.55;;;;;;;;;;6267092;28;24477;-75
2024/01/28 01:33:34;;;;;;;71.10;47.38;;;;;;;;;;6267252;28;24593;-75
2024/01/28 01:36:36;;;;;;;67.88;45.85;;;;;;;;;;6264871;28;24430;-75
2024/01/28 01:39:37;;;;;;;69.07;46.47;;;;;;;;;;6268281;28;24846;-74
2024/01/28 01:42:39;;;;;;;69.38;45.90;;;;;;;;;;6298148;28;24917;-74
2024/01/28 01:45:42;;;;;;;68.87;46.17;;;;;;;;;;6264658;28;24510;-74
2024/01/28 01:48:44;;;;;;;68.18;45.55;;;;;;;;;;6264772;28;24637;-74
2024/01/28 01:51:46;;;;;;;67.72;44.53;;;;;;;;;;6266750;28;24469;-75
2024/01/28 01:54:48;;;;;;;66.05;45.00;;;;;;;;;;6289801;28;24431;-74
2024/01/28 01:57:50;;;;;;;66.22;44.08;;;;;;;;;;6265598;28;24506;-74
2024/01/28 02:00:53;;;;;;;61.95;42.92;;;;;;;;;;6266597;28;24419;-75
2024/01/28 02:03:58;;;;;;;63.42;42.83;;;;;;;;;;6265809;28;24482;-74
2024/01/28 02:07:00;;;;;;;61.35;41.63;;;;;;;;;;6262772;28;24435;-74
2024/01/28 02:10:03;;;;;;;55.75;39.00;;;;;;;;;;6264184;28;24436;-75
2024/01/28 02:13:04;;;;;;;53.42;36.90;;;;;;;;;;6264338;28;24447;-75
2024/01/28 02:16:07;;;;;;;52.10;36.70;;;;;;;;;;6265432;28;24940;-73
2024/01/28 02:19:09;;;;;;;52.42;38.35;;;;;;;;;;6265601;28;24446;-74
2024/01/28 02:22:13;;;;;;;53.38;37.88;;;;;;;;;;6266936;28;24419;-74
2024/01/28 02:25:17;;;;;;;52.67;37.75;;;;;;;;;;6267452;28;24474;-74
2024/01/28 02:28:21;;;;;;;52.08;36.95;;;;;;;;;;6264569;28;24417;-74
2024/01/28 02:31:23;;;;;;;53.85;37.47;;;;;;;;;;6266460;28;24510;-74
2024/01/28 02:34:24;;;;;;;52.73;36.90;;;;;;;;;;6261723;28;24415;-74
2024/01/28 02:37:25;;;;;;;54.47;37.93;;;;;;;;;;6261320;28;24563;-74
2024/01/28 02:40:30;;;;;;;53.38;37.67;;;;;;;;;;6267691;28;24419;-74
2024/01/28 02:43:32;;;;;;;52.95;37.25;;;;;;;;;;6267443;28;24544;-74
2024/01/28 02:46:33;;;;;;;51.93;36.67;;;;;;;;;;6266993;28;24827;-74
2024/01/28 02:49:35;;;;;;;53.40;37.77;;;;;;;;;;6264508;28;24427;-74
2024/01/28 02:52:36;;;;;;;54.15;37.95;;;;;;;;;;6266180;28;24492;-74
2024/01/28 02:55:40;;;;;;;55.38;38.30;;;;;;;;;;6296432;28;24481;-74
2024/01/28 02:58:41;;;;;;;57.63;39.38;;;;;;;;;;6266739;28;24422;-74
2024/01/28 03:01:44;;;;;;;55.22;37.50;;;;;;;;;;6260978;28;24435;-75
2024/01/28 03:04:46;;;;;;;57.63;37.53;;;;;;;;;;6266506;28;24871;-75
2024/01/28 03:07:47;;;;;;;55.17;37.53;;;;;;;;;;6264768;28;24407;-75
2024/01/28 03:10:50;;;;;;;56.88;38.53;;;;;;;;;;6263079;28;24843;-74
2024/01/28 03:13:52;;;;;;;56.33;37.42;;;;;;;;;;6266512;28;24415;-77
2024/01/28 03:16:53;;;;;;;57.33;39.05;;;;;;;;;;6258493;28;24415;-75
2024/01/28 03:19:55;;;;;;;56.42;38.85;;;;;;;;;;6266256;28;24808;-74
2024/01/28 03:22:57;;;;;;;60.65;40.60;;;;;;;;;;6293686;28;24975;-74
2024/01/28 03:26:00;;;;;;;60.13;40.40;;;;;;;;;;6264743;28;24480;-74
2024/01/28 03:29:02;;;;;;;59.25;39.20;;;;;;;;;;6265983;28;24470;-74
2024/01/28 03:32:04;;;;;;;59.70;38.67;;;;;;;;;;6263927;28;24428;-74
2024/01/28 03:35:05;;;;;;;57.38;37.70;;;;;;;;;;6267306;28;24416;-75
2024/01/28 03:38:07;;;;;;;66.03;40.25;;;;;;;;;;6263256;28;24874;-75
2024/01/28 03:41:10;;;;;;;60.92;38.85;;;;;;;;;;6263233;28;24427;-75
2024/01/28 03:44:15;;;;;;;60.25;39.45;;;;;;;;;;6263753;28;24424;-76
2024/01/28 03:47:16;;;;;;;63.47;40.78;;;;;;;;;;6300407;28;24836;-75
2024/01/28 03:50:19;;;;;;;62.30;40.20;;;;;;;;;;6263366;28;24445;-75
2024/01/28 03:53:21;;;;;;;67.00;42.55;;;;;;;;;;6262868;28;24502;-74
2024/01/28 03:56:24;;;;;;;63.13;40.38;;;;;;;;;;6264331;28;24471;-74
2024/01/28 03:59:25;;;;;;;64.97;41.72;;;;;;;;;;6259959;28;24431;-74
2024/01/28 04:02:27;;;;;;;63.38;39.92;;;;;;;;;;6261415;28;24415;-74
2024/01/28 04:05:29;;;;;;;63.53;40.63;;;;;;;;;;6263991;28;24454;-74
2024/01/28 04:08:31;;;;;;;66.85;41.90;;;;;;;;;;6262263;28;24427;-74
2024/01/28 04:11:34;;;;;;;64.47;40.67;;;;;;;;;;6261936;28;24892;-76
2024/01/28 04:14:37;;;;;;;65.75;40.75;;;;;;;;;;6265749;28;24486;-76
2024/01/28 04:17:39;;;;;;;67.32;42.55;;;;;;;;;;6264481;28;24684;-74
2024/01/28 04:20:41;;;;;;;65.18;41.22;;;;;;;;;;6263374;28;24426;-73
2024/01/28 04:23:46;;;;;;;67.88;42.40;;;;;;;;;;6277939;28;24426;-74
2024/01/28 04:26:49;;;;;;;65.77;41.30;;;;;;;;;;6266395;28;24646;-75
2024/01/28 04:29:50;;;;;;;65.38;40.35;;;;;;;;;;6241893;28;25006;-74
2024/01/28 04:32:52;;;;;;;67.05;40.83;;;;;;;;;;6265237;28;24688;-74
2024/01/28 04:35:54;;;;;;;67.60;41.80;;;;;;;;;;6263625;28;24427;-74
2024/01/28 04:38:55;;;;;;;68.80;42.38;;;;;;;;;;6262899;28;24423;-75
2024/01/28 04:41:58;;;;;;;69.55;42.40;;;;;;;;;;6265097;28;24735;-74
2024/01/28 04:45:00;;;;;;;67.57;41.63;;;;;;;;;;6264407;28;24587;-74
2024/01/28 04:48:01;;;;;;;77.25;44.53;;;;;;;;;;6262806;28;24816;-74
2024/01/28 04:51:03;;;;;;;69.20;43.00;;;;;;;;;;6263087;28;24503;-74
2024/01/28 04:54:04;;;;;;;72.50;43.03;;;;;;;;;;6262558;28;24966;-74
2024/01/28 04:57:07;;;;;;;76.45;45.20;;;;;;;;;;6260827;28;24816;-74
2024/01/28 05:00:11;;;;;;;77.50;43.58;;;;;;;;;;6265296;28;24474;-74
2024/01/28 05:03:12;;;;;;;73.38;43.50;;;;;;;;;;6267167;28;24905;-73
2024/01/28 05:06:14;;;;;;;78.50;45.72;;;;;;;;;;6261537;28;24461;-73
2024/01/28 05:09:16;;;;;;;75.18;44.97;;;;;;;;;;6260234;28;24611;-73
2024/01/28 05:12:19;;;;;;;74.35;44.40;;;;;;;;;;6265093;28;24443;-73
2024/01/28 05:15:21;;;;;;;78.60;46.00;;;;;;;;;;6259795;28;24661;-74
2024/01/28 05:18:23;;;;;;;77.47;46.23;;;;;;;;;;6259777;28;24497;-73
2024/01/28 05:21:28;;;;;;;94.70;50.90;;;;;;;;;;6265144;28;24424;-74
2024/01/28 05:24:29;;;;;;;81.68;47.92;;;;;;;;;;6268320;28;24462;-73
2024/01/28 05:27:33;;;;;;;79.53;46.65;;;;;;;;;;6268641;28;24417;-74
2024/01/28 05:30:34;;;;;;;79.97;45.88;;;;;;;;;;6271321;28;24466;-74
2024/01/28 05:33:37;;;;;;;80.95;46.25;;;;;;;;;;6268220;28;24420;-75
2024/01/28 05:36:40;;;;;;;81.18;46.25;;;;;;;;;;6266172;28;24427;-74
2024/01/28 05:39:41;;;;;;;80.30;45.70;;;;;;;;;;6266528;28;24538;-75
2024/01/28 05:42:44;;;;;;;81.40;47.28;;;;;;;;;;6264553;28;24820;-74
2024/01/28 05:45:46;;;;;;;80.05;46.10;;;;;;;;;;6269552;28;24455;-74
2024/01/28 05:48:47;;;;;;;83.75;47.47;;;;;;;;;;6262846;28;24416;-74
2024/01/28 05:51:49;;;;;;;85.35;48.63;;;;;;;;;;6265698;28;24668;-73
2024/01/28 05:54:52;;;;;;;88.68;48.53;;;;;;;;;;6267480;28;24439;-74
2024/01/28 05:57:55;;;;;;;82.20;47.40;;;;;;;;;;6267335;28;24510;-75
2024/01/28 06:01:01;;;;;;;88.85;48.20;;;;;;;;;;6267197;28;24486;-74
2024/01/28 06:04:02;;;;;;;87.78;49.10;;;;;;;;;;6243205;28;24435;-74
2024/01/28 06:07:03;;;;;;;89.40;49.17;;;;;;;;;;6246904;28;24458;-74
2024/01/28 06:10:09;;;;;;;81.70;47.72;;;;;;;;;;6243037;28;24868;-74
2024/01/28 06:13:12;;;;;;;84.20;47.40;;;;;;;;;;6239136;28;24859;-74
2024/01/28 06:16:14;;;;;;;82.87;48.17;;;;;;;;;;6242539;28;24524;-75
2024/01/28 06:19:15;;;;;;;83.43;46.67;;;;;;;;;;6244247;28;24530;-73
2024/01/28 06:22:17;;;;;;;81.77;47.03;;;;;;;;;;6237220;28;24650;-74
2024/01/28 06:25:19;;;;;;;85.73;47.40;;;;;;;;;;6241362;28;24438;-74
2024/01/28 06:28:21;;;;;;;85.25;47.38;;;;;;;;;;6274524;28;24416;-73
2024/01/28 06:31:23;;;;;;;83.53;45.95;;;;;;;;;;6238996;28;24423;-74
2024/01/28 06:34:24;;;;;;;87.50;48.08;;;;;;;;;;6237620;28;24416;-75
2024/01/28 06:37:26;;;;;;;83.75;45.55;;;;;;;;;;6240811;28;25018;-75
2024/01/28 06:40:27;;;;;;;87.93;46.78;;;;;;;;;;6239559;28;24802;-74
2024/01/28 06:43:31;;;;;;;94.00;48.30;;;;;;;;;;6244386;28;24423;-73
2024/01/28 06:46:33;;;;;;;87.75;45.70;;;;;;;;;;6238345;28;24798;-75
2024/01/28 06:49:34;;;;;;;86.25;46.45;;;;;;;;;;6238170;28;24821;-75
2024/01/28 06:52:36;;;;;;;90.22;47.55;;;;;;;;;;6236029;28;24417;-72
2024/01/28 06:55:37;;;;;;;90.28;48.30;;;;;;;;;;6240651;28;24630;-75
2024/01/28 06:58:43;;;;;;;89.27;47.53;;;;;;;;;;6238862;28;24471;-75
2024/01/28 07:01:45;;;;;;;89.78;46.83;;;;;;;;;;6238074;28;24815;-76
2024/01/28 07:04:46;;;;;;;80.28;45.70;;;;;;;;;;6242343;28;24809;-75
2024/01/28 07:07:49;;;;;;;85.53;45.85;;;;;;;;;;6239225;28;24424;-76
2024/01/28 07:10:50;;;;;;;90.45;48.08;;;;;;;;;;6240836;28;24416;-74
2024/01/28 07:13:55;;;;;;;83.32;46.35;;;;;;;;;;6240259;28;24474;-74
2024/01/28 07:16:56;;;;;;;83.10;45.83;;;;;;;;;;6239637;28;24642;-74
2024/01/28 07:19:58;;;;;;;87.97;46.17;;;;;;;;;;6240668;28;24479;-74
2024/01/28 07:23:01;;;;;;;83.45;45.03;;;;;;;;;;6239178;28;25148;-74
2024/01/28 07:26:03;;;;;;;87.88;45.05;;;;;;;;;;6244171;28;24430;-74
2024/01/28 07:29:06;;;;;;;91.22;46.42;;;;;;;;;;6238372;28;24427;-74
2024/01/28 07:32:08;;;;;;;82.50;45.58;;;;;;;;;;6251238;28;24434;-74
2024/01/28 07:35:09;;;;;;;82.53;46.17;;;;;;;;;;6256048;28;24483;-75
2024/01/28 07:38:11;;;;;;;86.20;46.45;;;;;;;;;;6238666;28;24587;-74
2024/01/28 07:41:15;;;;;;;84.95;45.58;;;;;;;;;;6235435;28;24498;-73
2024/01/28 07:44:18;;;;;;;85.85;44.72;;;;;;;;;;6239291;28;24419;-73
2024/01/28 07:47:20;;;;;;;81.28;45.00;;;;;;;;;;6239779;28;24626;-73
2024/01/28 07:50:23;;;;;;;78.82;43.90;;;;;;;;;;6236894;28;24427;-74
2024/01/28 07:53:25;;;;;;;76.53;42.17;;;;;;;;;;6239164;28;24417;-74
2024/01/28 07:56:26;;;;;;;80.72;43.38;;;;;;;;;;6238006;28;24650;-73
2024/01/28 07:59:29;;;;;;;77.95;42.63;;;;;;;;;;6237029;28;24421;-74
2024/01/28 08:02:31;;;;;;;76.80;42.65;;;;;;;;;;6237228;28;24429;-74
2024/01/28 08:05:33;;;;;;;78.90;42.72;;;;;;;;;;6238213;28;24455;-74
2024/01/28 08:08:35;;;;;;;77.20;42.15;;;;;;;;;;6239905;28;24512;-73
2024/01/28 08:11:36;;;;;;;79.72;43.70;;;;;;;;;;6238188;28;24424;-74
2024/01/28 08:14:39;;;;;;;78.93;43.20;;;;;;;;;;6239807;28;24638;-74
2024/01/28 08:17:41;;;;;;;77.68;43.63;;;;;;;;;;6236024;28;24435;-74
2024/01/28 08:20:42;;;;;;;76.38;42.28;;;;;;;;;;6238468;28;24424;-74
2024/01/28 08:23:44;;;;;;;80.40;44.25;;;;;;;;;;6239144;28;24429;-74
2024/01/28 08:26:48;;;;;;;76.70;42.58;;;;;;;;;;6241948;28;24661;-74
2024/01/28 08:29:51;;;;;;;78.30;43.58;;;;;;;;;;6243021;28;24439;-74
2024/01/28 08:32:53;;;;;;;76.55;42.97;;;;;;;;;;6237775;28;24475;-74
2024/01/28 08:35:54;;;;;;;75.18;41.28;;;;;;;;;;6237899;28;24466;-73
2024/01/28 08:38:56;;;;;;;78.35;43.90;;;;;;;;;;6235814;28;24427;-73
2024/01/28 08:41:59;;;;;;;74.60;42.33;;;;;;;;;;6240733;28;25005;-73
2024/01/28 08:45:02;;;;;;;75.35;42.38;;;;;;;;;;6240508;28;24886;-74
2024/01/28 08:48:04;;;;;;;74.85;41.38;;;;;;;;;;6238933;28;24617;-73
2024/01/28 08:51:08;;;;;;;71.10;40.95;;;;;;;;;;6241281;28;24424;-74
2024/01/28 08:54:10;;;;;;;67.75;40.17;;;;;;;;;;6238417;28;24440;-74
2024/01/28 08:57:11;;;;;;;69.40;40.05;;;;;;;;;;6244134;28;24428;-74
2024/01/28 09:00:17;;;;;;;71.15;40.47;;;;;;;;;;6242966;28;24491;-74
2024/01/28 09:03:19;;;;;;;69.40;40.67;;;;;;;;;;6243579;28;24416;-74
2024/01/28 09:06:20;;;;;;;69.88;40.17;;;;;;;;;;6242154;28;24447;-75
2024/01/28 09:09:23;;;;;;;68.55;39.45;;;;;;;;;;6239820;28;24462;-74
2024/01/28 09:12:24;;;;;;;72.47;41.13;;;;;;;;;;6242993;28;24427;-74
2024/01/28 09:15:27;;;;;;;66.57;40.25;;;;;;;;;;6241643;28;24732;-74
2024/01/28 09:18:29;;;;;;;64.20;38.25;;;;;;;;;;6243870;28;24448;-78
2024/01/28 09:21:34;;;;;;;64.70;39.65;;;;;;;;;;6241347;28;24789;-77
2024/01/28 09:24:36;;;;;;;66.20;37.67;;;;;;;;;;6243703;28;24581;-78
2024/01/28 09:27:48;;;;;;;64.30;38.03;;;;;;;;;;6244752;28;24431;-79
2024/01/28 09:30:51;;;;;;;62.90;38.23;;;;;;;;;;6241601;28;24424;-78
2024/01/28 09:33:52;;;;;;;63.80;38.03;;;;;;;;;;6243902;28;24519;-79
2024/01/28 09:36:55;;;;;;;61.95;38.10;;;;;;;;;;6238989;28;24424;-79
2024/01/28 09:39:58;;;;;;;60.05;36.33;;;;;;;;;;6235442;28;24451;-78
2024/01/28 09:43:04;;;;;;;59.85;36.15;;;;;;;;;;6237799;28;24442;-78
2024/01/28 09:46:08;;;;;;;60.97;34.97;;;;;;;;;;6241213;28;24427;-78
2024/01/28 09:49:11;;;;;;;57.65;36.50;;;;;;;;;;6239623;28;24440;-79
2024/01/28 09:52:16;;;;;;;56.60;35.20;;;;;;;;;;6241029;28;24646;-78
2024/01/28 09:55:18;;;;;;;60.08;37.78;;;;;;;;;;6242633;28;24548;-78
2024/01/28 09:58:19;;;;;;;62.05;38.50;;;;;;;;;;6242022;28;24796;-77
2024/01/28 10:01:25;;;;;;;61.45;37.97;;;;;;;;;;6238996;28;25121;-79
2024/01/28 10:04:27;;;;;;;57.60;35.10;;;;;;;;;;6250317;28;24428;-78
2024/01/28 10:07:29;;;;;;;55.77;35.30;;;;;;;;;;6241495;28;24433;-78
2024/01/28 10:10:32;;;;;;;59.95;37.22;;;;;;;;;;6242478;28;24890;-78
2024/01/28 10:13:34;;;;;;;59.58;37.30;;;;;;;;;;6240499;28;24484;-77
2024/01/28 10:16:37;;;;;;;62.37;36.57;;;;;;;;;;6244926;28;24515;-78
2024/01/28 10:19:41;;;;;;;59.53;37.22;;;;;;;;;;6241032;28;24420;-78
2024/01/28 10:22:42;;;;;;;58.25;35.78;;;;;;;;;;6241325;28;24674;-78
2024/01/28 10:25:44;;;;;;;56.53;35.83;;;;;;;;;;6244156;28;24424;-77
2024/01/28 10:28:46;;;;;;;58.53;35.95;;;;;;;;;;6240421;28;24412;-74
2024/01/28 10:31:52;;;;;;;57.17;35.33;;;;;;;;;;6237662;28;24419;-77
2024/01/28 10:34:53;;;;;;;57.70;36.33;;;;;;;;;;6239377;28;24408;-75
2024/01/28 10:37:56;;;;;;;58.65;36.78;;;;;;;;;;6238550;28;24443;-74
2024/01/28 10:41:01;;;;;;;66.97;38.30;;;;;;;;;;6242202;28;24434;-75
2024/01/28 10:44:04;;;;;;;59.67;36.63;;;;;;;;;;6239649;28;24428;-74
2024/01/28 10:47:09;;;;;;;62.33;37.40;;;;;;;;;;6239322;28;24614;-74
2024/01/28 10:50:12;;;;;;;59.47;36.20;;;;;;;;;;6240082;28;24420;-74
2024/01/28 10:53:14;;;;;;;58.53;36.28;;;;;;;;;;6238908;28;24423;-75
2024/01/28 10:56:19;;;;;;;55.40;34.88;;;;;;;;;;6233678;28;24427;-75
2024/01/28 10:59:22;;;;;;;56.05;34.55;;;;;;;;;;6241817;28;24447;-75
2024/01/28 11:02:25;;;;;;;59.28;36.10;;;;;;;;;;6240836;28;24424;-74
2024/01/28 11:05:27;;;;;;;58.73;36.83;;;;;;;;;;6236847;28;24463;-74
2024/01/28 11:08:28;;;;;;;60.50;38.17;;;;;;;;;;6239779;28;24829;-73
2024/01/28 11:11:31;;;;;;;57.25;35.65;;;;;;;;;;6241235;28;24439;-74
2024/01/28 11:14:34;;;;;;;56.55;35.25;;;;;;;;;;6239017;28;24484;-74
2024/01/28 11:17:38;;;;;;;56.72;35.60;;;;;;;;;;6240508;28;24431;-74
2024/01/28 11:20:40;;;;;;;54.27;34.50;;;;;;;;;;6237397;28;24638;-74
2024/01/28 11:23:45;;;;;;;56.93;34.90;;;;;;;;;;6239002;28;24887;-75
2024/01/28 11:26:47;;;;;;;54.92;34.72;;;;;;;;;;6237353;28;24757;-74
2024/01/28 11:29:55;;;;;;;54.40;34.85;;;;;;;;;;6243835;28;24432;-74
2024/01/28 11:33:08;;;;;;;55.63;34.90;;;;;;;;;;6238037;28;24438;-74
2024/01/28 11:36:10;;;;;;;60.03;37.22;;;;;;;;;;6240792;28;24431;-73
2024/01/28 11:39:14;;;;;;;56.78;37.20;;;;;;;;;;6238379;28;25074;-75
2024/01/28 11:42:15;;;;;;;56.35;35.97;;;;;;;;;;6242054;28;24817;-74
2024/01/28 11:45:17;;;;;;;57.75;36.67;;;;;;;;;;6239447;28;24423;-74
2024/01/28 11:48:21;;;;;;;60.20;37.15;;;;;;;;;;6239344;28;24555;-74
2024/01/28 11:51:23;;;;;;;58.13;36.40;;;;;;;;;;6237369;28;24493;-74
2024/01/28 11:54:24;;;;;;;55.78;36.83;;;;;;;;;;6240811;28;24436;-75
2024/01/28 11:57:26;;;;;;;54.50;34.28;;;;;;;;;;6236773;28;24432;-75
2024/01/28 12:00:27;;;;;;;55.73;36.27;;;;;;;;;;6268561;28;24471;-75
2024/01/28 12:03:30;;;;;;;55.13;35.70;;;;;;;;;;6238108;28;24592;-75
2024/01/28 12:06:33;;;;;;;54.58;35.83;;;;;;;;;;6238685;28;24435;-74
2024/01/28 12:09:38;;;;;;;51.50;34.85;;;;;;;;;;6238808;28;24813;-75
2024/01/28 12:12:40;;;;;;;53.03;35.43;;;;;;;;;;6239742;28;24851;-76
2024/01/28 12:15:41;;;;;;;56.10;36.88;;;;;;;;;;6239511;28;24447;-75
2024/01/28 12:18:45;;;;;;;56.80;37.47;;;;;;;;;;6237823;28;24921;-74
2024/01/28 12:21:47;;;;;;;57.15;37.25;;;;;;;;;;6239932;28;24967;-75
2024/01/28 12:24:49;;;;;;;57.40;37.15;;;;;;;;;;6253835;28;24623;-75
2024/01/28 12:27:51;;;;;;;57.23;37.50;;;;;;;;;;6239109;28;24431;-74
2024/01/28 12:30:54;;;;;;;60.55;39.88;;;;;;;;;;6242592;28;24424;-74
2024/01/28 12:33:57;;;;;;;61.57;38.40;;;;;;;;;;6242882;28;24470;-74
2024/01/28 12:36:59;;;;;;;60.42;38.88;;;;;;;;;;6241581;28;24443;-74
2024/01/28 12:40:00;;;;;;;62.83;40.03;;;;;;;;;;6242575;28;24420;-75
2024/01/28 12:43:02;;;;;;;67.85;42.30;;;;;;;;;;6244325;28;24431;-74
2024/01/28 12:46:04;;;;;;;63.38;39.47;;;;;;;;;;6242089;28;24420;-73
2024/01/28 12:49:08;;;;;;;59.80;38.47;;;;;;;;;;6242368;28;24443;-74
2024/01/28 12:52:10;;;;;;;61.47;38.87;;;;;;;;;;6242511;28;24463;-73
2024/01/28 12:55:12;;;;;;;61.47;38.70;;;;;;;;;;6239784;28;24837;-74
2024/01/28 12:58:13;;;;;;;66.63;42.67;;;;;;;;;;6242760;28;24512;-75
2024/01/28 13:01:16;;;;;;;68.32;42.25;;;;;;;;;;6273677;28;24435;-75
2024/01/28 13:04:20;;;;;;;66.28;41.58;;;;;;;;;;6241620;28;24459;-75
2024/01/28 13:07:22;;;;;;;63.42;41.28;;;;;;;;;;6238430;28;24522;-75
2024/01/28 13:10:23;;;;;;;62.28;39.05;;;;;;;;;;6243970;28;24598;-75
2024/01/28 13:13:28;;;;;;;59.45;38.83;;;;;;;;;;6242735;28;24819;-74
2024/01/28 13:16:30;;;;;;;65.20;42.53;;;;;;;;;;6239534;28;24466;-74
2024/01/28 13:19:33;;;;;;;68.63;42.95;;;;;;;;;;6242811;28;24411;-74
2024/01/28 13:22:34;;;;;;;64.13;41.23;;;;;;;;;;6244350;28;24422;-74
2024/01/28 13:25:36;;;;;;;62.53;40.70;;;;;;;;;;6244306;28;24554;-75
2024/01/28 13:28:37;;;;;;;65.03;41.58;;;;;;;;;;6243462;28;24825;-74
2024/01/28 13:31:39;;;;;;;61.70;40.13;;;;;;;;;;6246187;28;24933;-75
2024/01/28 13:34:42;;;;;;;60.28;40.22;;;;;;;;;;6240586;28;24619;-74
2024/01/28 13:37:44;;;;;;;65.38;42.97;;;;;;;;;;6243478;28;24424;-74
2024/01/28 13:40:45;;;;;;;63.17;40.57;;;;;;;;;;6247589;28;24567;-74
2024/01/28 13:43:48;;;;;;;64.07;41.90;;;;;;;;;;6242289;28;24495;-74
2024/01/28 13:46:49;;;;;;;65.90;43.38;;;;;;;;;;6241253;28;24860;-74
2024/01/28 13:49:53;;;;;;;64.20;41.55;;;;;;;;;;6244056;28;24599;-74
2024/01/28 13:52:54;;;;;;;58.78;39.25;;;;;;;;;;6239585;28;24420;-74
2024/01/28 13:55:56;;;;;;;62.07;40.80;;;;;;;;;;6242233;28;24416;-74
2024/01/28 13:58:59;;;;;;;67.10;44.17;;;;;;;;;;6238191;28;24483;-74
2024/01/28 14:02:02;;;;;;;67.47;44.25;;;;;;;;;;6243368;28;24466;-74
2024/01/28 14:05:07;;;;;;;66.82;43.80;;;;;;;;;;6241811;28;24428;-75
2024/01/28 14:08:09;;;;;;;68.00;44.53;;;;;;;;;;6243328;28;24423;-73
2024/01/28 14:11:12;;;;;;;72.63;45.85;;;;;;;;;;6243052;28;24416;-74
2024/01/28 14:14:14;;;;;;;70.03;46.20;;;;;;;;;;6240661;28;24408;-74
2024/01/28 14:17:15;;;;;;;71.90;47.08;;;;;;;;;;6242274;28;24411;-74
2024/01/28 14:20:20;;;;;;;72.15;45.60;;;;;;;;;;6242474;28;25064;-73
2024/01/28 14:23:22;;;;;;;68.10;43.75;;;;;;;;;;6241579;28;24416;-74
2024/01/28 14:26:23;;;;;;;69.22;44.53;;;;;;;;;;6238499;28;24588;-74
2024/01/28 14:29:25;;;;;;;68.33;43.67;;;;;;;;;;6238893;28;24428;-74
2024/01/28 14:32:27;;;;;;;71.38;46.08;;;;;;;;;;6236161;28;24443;-74
2024/01/28 14:35:35;;;;;;;72.28;44.75;;;;;;;;;;6241438;28;24442;-75
2024/01/28 14:38:37;;;;;;;69.38;44.60;;;;;;;;;;6238727;28;24428;-74
2024/01/28 14:41:38;;;;;;;68.85;44.28;;;;;;;;;;6242097;28;24428;-74
2024/01/28 14:44:40;;;;;;;70.72;45.40;;;;;;;;;;6241602;28;25141;-74
2024/01/28 14:47:41;;;;;;;73.65;46.08;;;;;;;;;;6239056;28;24808;-74
2024/01/28 14:50:44;;;;;;;73.72;45.17;;;;;;;;;;6236908;28;24610;-75
2024/01/28 14:53:46;;;;;;;71.75;45.10;;;;;;;;;;6286240;28;24434;-74
2024/01/28 14:56:48;;;;;;;70.82;44.75;;;;;;;;;;6251437;28;24523;-74
2024/01/28 14:59:49;;;;;;;72.90;45.90;;;;;;;;;;6239715;28;24443;-74
2024/01/28 15:02:51;;;;;;;67.53;42.95;;;;;;;;;;6242169;28;24431;-74
2024/01/28 15:05:55;;;;;;;64.13;41.20;;;;;;;;;;6239431;28;24821;-77
2024/01/28 15:08:57;;;;;;;65.97;42.90;;;;;;;;;;6238729;28;24852;-73
2024/01/28 15:11:58;;;;;;;66.97;42.97;;;;;;;;;;6239464;28;24436;-74
2024/01/28 15:15:00;;;;;;;66.80;42.70;;;;;;;;;;6244427;28;24800;-74
2024/01/28 15:18:01;;;;;;;66.50;41.38;;;;;;;;;;6240481;28;24436;-75
2024/01/28 15:21:05;;;;;;;61.28;39.30;;;;;;;;;;6242519;28;24503;-75
2024/01/28 15:24:07;;;;;;;61.38;39.65;;;;;;;;;;6241400;28;25076;-75
2024/01/28 15:27:08;;;;;;;59.75;39.55;;;;;;;;;;6240204;28;24443;-74
2024/01/28 15:30:10;;;;;;;59.65;38.80;;;;;;;;;;6239260;28;24424;-74
2024/01/28 15:33:11;;;;;;;62.80;39.65;;;;;;;;;;6243141;28;24513;-76
2024/01/28 15:36:15;;;;;;;66.20;41.03;;;;;;;;;;6240868;28;24435;-74
2024/01/28 15:39:16;;;;;;;63.03;39.87;;;;;;;;;;6244098;28;24861;-74
2024/01/28 15:42:18;;;;;;;68.28;41.65;;;;;;;;;;6242265;28;24535;-74
2024/01/28 15:45:20;;;;;;;324.05;165.65;;;;;;;;;;6244685;28;24661;-74
2024/01/28 15:48:22;;;;;;;217.45;114.68;;;;;;;;;;6242898;28;24619;-74
2024/01/28 15:51:25;;;;;;;148.73;81.80;;;;;;;;;;6241043;28;24416;-73
2024/01/28 15:54:27;;;;;;;100.72;56.88;;;;;;;;;;6245687;28;24525;-74
2024/01/28 15:57:28;;;;;;;97.68;55.03;;;;;;;;;;6243174;28;24491;-74
2024/01/28 16:00:30;;;;;;;72.95;44.28;;;;;;;;;;6242148;28;24561;-74
2024/01/28 16:03:32;;;;;;;67.07;40.92;;;;;;;;;;6240568;28;25075;-74
2024/01/28 16:06:35;;;;;;;63.05;40.70;;;;;;;;;;6239980;28;24424;-74
2024/01/28 16:09:36;;;;;;;64.90;39.42;;;;;;;;;;6242561;28;24685;-75
2024/01/28 16:12:39;;;;;;;66.60;41.55;;;;;;;;;;6238917;28;24452;-75
2024/01/28 16:15:41;;;;;;;61.47;39.45;;;;;;;;;;6240281;28;24844;-74
2024/01/28 16:18:42;;;;;;;65.78;39.85;;;;;;;;;;6237118;28;24478;-74
2024/01/28 16:21:46;;;;;;;67.97;39.78;;;;;;;;;;6242016;28;24432;-74
2024/01/28 16:24:47;;;;;;;67.00;40.58;;;;;;;;;;6238313;28;25066;-74
2024/01/28 16:27:49;;;;;;;67.93;40.60;;;;;;;;;;6237155;28;24427;-74
2024/01/28 16:30:50;;;;;;;65.30;40.30;;;;;;;;;;6240348;28;24629;-74
2024/01/28 16:33:52;;;;;;;64.47;39.15;;;;;;;;;;6241516;28;24428;-75
2024/01/28 16:36:55;;;;;;;67.97;41.00;;;;;;;;;;6239708;28;24514;-73
2024/01/28 16:39:57;;;;;;;70.45;41.85;;;;;;;;;;6273912;28;24431;-73
2024/01/28 16:43:01;;;;;;;75.82;45.05;;;;;;;;;;6238493;28;24436;-74
2024/01/28 16:46:02;;;;;;;73.80;43.97;;;;;;;;;;6262561;28;24415;-74
2024/01/28 16:49:04;;;;;;;77.10;46.33;;;;;;;;;;6236837;28;24456;-73
2024/01/28 16:52:08;;;;;;;78.83;45.40;;;;;;;;;;6232867;28;24419;-74
2024/01/28 16:55:09;;;;;;;78.30;44.88;;;;;;;;;;6237047;28;24439;-75
2024/01/28 16:58:11;;;;;;;75.80;43.90;;;;;;;;;;6270865;28;24506;-74
2024/01/28 17:01:13;;;;;;;77.38;45.42;;;;;;;;;;6240450;28;24438;-74
2024/01/28 17:04:14;;;;;;;84.47;46.38;;;;;;;;;;6241115;28;24494;-75
2024/01/28 17:07:17;;;;;;;75.05;44.83;;;;;;;;;;6243441;28;24442;-74
2024/01/28 17:10:19;;;;;;;75.63;45.10;;;;;;;;;;6239794;28;24825;-72
2024/01/28 17:13:20;;;;;;;77.35;45.55;;;;;;;;;;6245219;28;25002;-74
2024/01/28 17:16:22;;;;;;;79.28;46.20;;;;;;;;;;6244407;28;24828;-74
2024/01/28 17:19:23;;;;;;;79.85;46.10;;;;;;;;;;6247988;28;24439;-75
2024/01/28 17:22:26;;;;;;;80.43;45.50;;;;;;;;;;6273681;28;24426;-75
2024/01/28 17:25:29;;;;;;;79.63;46.17;;;;;;;;;;6271140;28;24851;-73
2024/01/28 17:28:31;;;;;;;80.13;45.77;;;;;;;;;;6242298;28;24483;-74
2024/01/28 17:31:34;;;;;;;82.20;45.75;;;;;;;;;;6248769;28;24480;-75
2024/01/28 17:34:37;;;;;;;81.57;46.97;;;;;;;;;;6239140;28;24416;-75
2024/01/28 17:37:41;;;;;;;82.95;46.58;;;;;;;;;;6238085;28;24432;-75
2024/01/28 17:40:45;;;;;;;83.57;46.58;;;;;;;;;;6241048;28;24420;-75